Time;durP1;ratioP1;P1;durP2;ratioP2;P2;SDS_P1;SDS_P2;PMS_P1;PMS_P2;Temp;Humidity;BMP_temperature;BMP_pressure;BME280_temperature;BME280_humidity;BME280_pressure;Samples;Min_cycle;Max_cycle;Signal;HPM_P1;HPM_P2
2022/11/19 00:01:26;;;;;;;15.32;11.57;;;;;;;-0.42;100.00;98532.33;1734541;82;21605;-72
2022/11/19 00:03:52;;;;;;;13.83;10.40;;;;;;;-0.42;100.00;98526.47;1734836;82;21465;-72
2022/11/19 00:06:20;;;;;;;;;;;;;;;-0.36;100.00;98522.89;1732839;82;21005;-72
2022/11/19 00:08:48;;;;;;;13.13;10.00;;;;;;;-0.34;100.00;98525.31;1735157;82;20146;-72
2022/11/19 00:14:11;;;;;;;12.80;8.78;;;;;;;-0.39;100.00;98519.87;1746523;82;21054;-73
2022/11/19 00:16:39;;;;;;;11.12;8.83;;;;;;;-0.31;100.00;98505.61;1744135;82;21494;-72
2022/11/19 00:19:06;;;;;;;12.07;8.40;;;;;;;-0.28;100.00;98505.66;1739119;82;20992;-72
2022/11/19 00:21:33;;;;;;;;;;;;;;;-0.20;100.00;98498.64;1742455;82;20995;-73
2022/11/19 00:23:59;;;;;;;10.00;8.40;;;;;;;-0.23;100.00;98497.25;1742143;82;20094;-73
2022/11/19 00:26:25;;;;;;;;;;;;;;;-0.25;100.00;98486.51;1749496;82;21898;-73
2022/11/19 00:28:53;;;;;;;10.90;8.20;;;;;;;-0.20;100.00;98490.62;1733461;82;20161;-73
2022/11/19 00:31:20;;;;;;;10.05;7.67;;;;;;;-0.31;100.00;98482.88;1727255;82;21066;-73
2022/11/19 00:33:49;;;;;;;9.60;7.25;;;;;;;-0.22;100.00;98476.16;1727075;82;21643;-72
2022/11/19 00:36:15;;;;;;;10.60;7.15;;;;;;;-0.20;100.00;98471.89;1736246;82;21491;-72
2022/11/19 00:42:28;;;;;;;9.95;7.15;;;;;;;-0.07;100.00;98462.28;1807094;78;23633;-70
2022/11/19 00:44:56;;;;;;;9.15;6.85;;;;;;;-0.12;100.00;98470.22;1736232;80;21007;-71
2022/11/19 00:47:22;;;;;;;10.60;7.20;;;;;;;-0.03;100.00;98465.60;1722851;83;21086;-72
2022/11/19 00:49:49;;;;;;;9.00;6.35;;;;;;;-0.02;100.00;98473.11;1724172;82;21078;-72
2022/11/19 00:52:15;;;;;;;9.58;7.08;;;;;;;-0.03;100.00;98466.12;1736126;82;21038;-72
2022/11/19 00:54:42;;;;;;;9.93;7.28;;;;;;;-0.05;100.00;98461.02;1733937;80;21050;-72
2022/11/19 00:57:08;;;;;;;9.83;6.62;;;;;;;-0.10;100.00;98461.42;1721808;81;21006;-72
2022/11/19 00:59:35;;;;;;;11.00;7.45;;;;;;;-0.03;100.00;98447.39;1699054;83;21506;-73
2022/11/19 01:02:01;;;;;;;7.87;6.00;;;;;;;-0.02;100.00;98438.33;1699520;83;20975;-72
2022/11/19 01:04:28;;;;;;;8.23;6.33;;;;;;;0.00;100.00;98430.91;1681126;83;21021;-73
2022/11/19 01:06:54;;;;;;;8.68;6.30;;;;;;;0.05;100.00;98429.66;1703106;83;20979;-72
2022/11/19 01:09:20;;;;;;;8.55;6.00;;;;;;;0.08;100.00;98431.85;1699882;83;21058;-72
2022/11/19 01:11:47;;;;;;;9.45;6.62;;;;;;;0.12;100.00;98428.18;1695315;83;21019;-72
2022/11/19 01:14:13;;;;;;;8.68;6.08;;;;;;;0.10;100.00;98426.28;1694613;83;21048;-72
2022/11/19 01:16:40;;;;;;;8.78;5.87;;;;;;;0.04;100.00;98421.33;1686367;83;21612;-72
2022/11/19 01:19:08;;;;;;;8.00;5.87;;;;;;;0.07;100.00;98420.88;1688496;83;21181;-72
2022/11/19 01:21:34;;;;;;;7.70;5.60;;;;;;;0.12;100.00;98409.45;1674723;84;21557;-72
2022/11/19 01:24:01;;;;;;;8.20;6.00;;;;;;;0.12;100.00;98408.11;1673627;84;21136;-72
2022/11/19 01:26:29;;;;;;;7.05;5.30;;;;;;;0.14;100.00;98412.72;1683077;84;21541;-71
2022/11/19 01:32:28;;;;;;;7.25;5.35;;;;;;;0.20;100.00;98397.86;1874960;74;23381;-72
2022/11/19 01:34:54;;;;;;;7.35;5.20;;;;;;;0.09;100.00;98401.90;1844508;77;21040;-72
2022/11/19 01:37:20;;;;;;;7.33;5.40;;;;;;;0.07;100.00;98394.13;1831585;77;21016;-72
2022/11/19 01:39:47;;;;;;;8.23;5.95;;;;;;;0.16;100.00;98399.38;1823583;77;21037;-72
2022/11/19 01:45:34;;;;;;;6.65;4.72;;;;;;;0.17;100.00;98400.20;1831643;76;21011;-72
2022/11/19 01:48:09;;;;;;;7.53;5.22;;;;;;;0.17;100.00;98391.65;1834230;76;20957;-72
2022/11/19 01:50:39;;;;;;;6.67;4.40;;;;;;;0.19;100.00;98396.23;1833008;77;21063;-72
2022/11/19 01:53:08;;;;;;;6.67;4.65;;;;;;;0.17;100.00;98395.66;1845596;77;21066;-72
2022/11/19 01:55:35;;;;;;;5.70;4.67;;;;;;;0.18;100.00;98383.88;1844354;76;21016;-72
2022/11/19 01:58:02;;;;;;;6.28;4.30;;;;;;;0.20;100.00;98386.34;1752746;80;20956;-72
2022/11/19 02:00:29;;;;;;;5.20;3.75;;;;;;;0.18;100.00;98375.07;1790796;79;21057;-72
2022/11/19 02:02:58;;;;;;;5.92;4.25;;;;;;;0.25;100.00;98374.41;1806784;79;20946;-72
2022/11/19 02:05:24;;;;;;;5.28;4.10;;;;;;;0.27;100.00;98374.45;1773518;80;20987;-72
2022/11/19 02:07:56;;;;;;;5.37;3.98;;;;;;;0.29;100.00;98371.52;1770592;79;20988;-73
2022/11/19 02:10:43;;;;;;;5.33;3.80;;;;;;;0.33;100.00;98364.11;1761829;79;21018;-72
2022/11/19 02:13:29;;;;;;;4.90;3.50;;;;;;;0.34;100.00;98353.70;1800039;79;21222;-72
2022/11/19 02:16:06;;;;;;;5.45;3.98;;;;;;;0.35;100.00;98363.36;1806567;79;21074;-72
2022/11/19 02:18:42;;;;;;;5.40;3.70;;;;;;;0.39;100.00;98355.67;1787558;79;21054;-72
2022/11/19 02:21:41;;;;;;;5.12;3.30;;;;;;;0.34;100.00;98356.38;1796092;79;21022;-71
2022/11/19 02:24:21;;;;;;;5.20;3.58;;;;;;;0.37;100.00;98346.52;1765918;80;21885;-71
2022/11/19 02:27:19;;;;;;;4.03;2.75;;;;;;;0.29;100.00;98342.89;1781470;80;21560;-71
2022/11/19 02:30:03;;;;;;;4.75;3.25;;;;;;;0.31;100.00;98347.49;1773170;80;21039;-71
2022/11/19 02:32:37;;;;;;;4.97;2.67;;;;;;;0.26;100.00;98340.69;1807006;78;21585;-71
2022/11/19 02:35:12;;;;;;;3.92;2.50;;;;;;;0.28;100.00;98340.47;1764920;79;22199;-71
2022/11/19 02:37:50;;;;;;;4.15;2.98;;;;;;;0.33;100.00;98344.03;1788072;79;21073;-71
2022/11/19 02:40:22;;;;;;;5.35;3.05;;;;;;;0.31;100.00;98334.11;1788730;79;21496;-71
2022/11/19 02:43:12;;;;;;;4.85;3.08;;;;;;;0.35;100.00;98340.61;1773441;79;21014;-71
2022/11/19 02:45:55;;;;;;;4.80;3.27;;;;;;;0.35;100.00;98337.12;1779770;80;20983;-71
2022/11/19 02:51:37;;;;;;;4.92;3.25;;;;;;;0.37;100.00;98331.80;1797735;78;23456;-68
2022/11/19 02:54:04;;;;;;;4.80;2.98;;;;;;;0.33;100.00;98338.69;1759365;80;21054;-68
2022/11/19 02:56:50;;;;;;;4.35;3.10;;;;;;;0.33;100.00;98327.16;1731747;81;21533;-68
2022/11/19 03:04:51;;;;;;;5.30;3.02;;;;;;;0.36;100.00;98340.88;1749642;81;21669;-71
2022/11/19 03:07:18;;;;;;;4.90;2.80;;;;;;;0.34;100.00;98337.64;1729338;81;21020;-71
2022/11/19 03:09:57;;;;;;;4.50;3.02;;;;;;;0.38;100.00;98330.76;1733970;80;21113;-71
2022/11/19 03:12:45;;;;;;;4.78;2.90;;;;;;;0.34;100.00;98334.14;1716285;82;21688;-71
2022/11/19 03:18:37;;;;;;;4.83;3.00;;;;;;;0.32;100.00;98327.68;1704685;82;21573;-71
2022/11/19 03:21:14;;;;;;;4.58;3.08;;;;;;;0.29;100.00;98334.86;1710053;83;21086;-71
2022/11/19 03:24:03;;;;;;;3.42;2.22;;;;;;;0.33;100.00;98325.82;1689200;84;21107;-71
2022/11/19 03:26:33;;;;;;;3.55;2.50;;;;;;;0.33;100.00;98324.48;1698939;84;21137;-71
2022/11/19 03:29:03;;;;;;;4.80;2.35;;;;;;;0.34;100.00;98322.92;1672394;85;21056;-71
2022/11/19 03:31:29;;;;;;;4.33;2.60;;;;;;;0.32;100.00;98323.66;1707307;83;21027;-71
2022/11/19 03:33:58;;;;;;;;;;;;;;;0.37;100.00;98314.92;1681200;84;21028;-71
2022/11/19 03:36:32;;;;;;;5.78;3.15;;;;;;;0.39;100.00;98320.31;1676102;84;20427;-71
2022/11/19 03:39:02;;;;;;;5.70;3.22;;;;;;;0.31;100.00;98318.56;1665306;84;21047;-71
2022/11/19 03:41:29;;;;;;;6.60;3.72;;;;;;;0.33;100.00;98310.58;1661272;85;21503;-71
2022/11/19 03:44:02;;;;;;;7.62;3.30;;;;;;;0.39;100.00;98318.19;1689160;84;21094;-71
2022/11/19 03:46:29;;;;;;;6.55;3.33;;;;;;;0.38;100.00;98322.73;1697591;83;21019;-72
2022/11/19 03:48:56;;;;;;;6.17;3.40;;;;;;;0.40;100.00;98319.27;1688028;84;21090;-71
2022/11/19 03:51:36;;;;;;;5.90;3.20;;;;;;;0.40;100.00;98315.25;1665483;84;21099;-71
2022/11/19 03:54:03;;;;;;;6.45;3.05;;;;;;;0.37;100.00;98318.41;1649846;86;21122;-71
2022/11/19 03:56:30;;;;;;;6.05;3.67;;;;;;;0.40;100.00;98317.11;1647616;85;21100;-71
2022/11/19 03:58:57;;;;;;;7.15;3.67;;;;;;;0.36;100.00;98307.94;1652717;85;21140;-71
2022/11/19 04:06:06;;;;;;;7.17;3.45;;;;;;;0.39;100.00;98307.48;1818772;78;23435;-69
2022/11/19 04:08:32;;;;;;;5.95;3.10;;;;;;;0.28;100.00;98304.33;1770673;80;21603;-69
2022/11/19 04:10:59;;;;;;;5.30;3.22;;;;;;;0.27;100.00;98308.05;1744802;81;21009;-69
2022/11/19 04:13:26;;;;;;;5.35;2.98;;;;;;;0.29;100.00;98300.06;1741335;81;21709;-69
2022/11/19 04:15:53;;;;;;;6.03;2.90;;;;;;;0.36;100.00;98301.25;1755461;81;21121;-70
2022/11/19 04:18:20;;;;;;;5.72;2.60;;;;;;;0.32;100.00;98292.88;1765105;81;21105;-69
2022/11/19 04:20:47;;;;;;;4.65;2.10;;;;;;;0.35;100.00;98296.97;1745319;81;21084;-69
2022/11/19 04:23:13;;;;;;;4.95;2.50;;;;;;;0.31;100.00;98286.45;1751828;81;21077;-69
2022/11/19 04:25:46;;;;;;;3.62;2.20;;;;;;;0.31;100.00;98288.61;1743896;81;22259;-70
2022/11/19 04:28:13;;;;;;;3.20;1.80;;;;;;;0.33;100.00;98280.31;1747550;81;21569;-69
2022/11/19 04:30:39;;;;;;;3.83;1.95;;;;;;;0.31;100.00;98281.91;1758552;81;20998;-69
2022/11/19 04:33:06;;;;;;;3.77;2.22;;;;;;;0.33;100.00;98282.47;1742124;81;21092;-69
2022/11/19 04:35:33;;;;;;;4.35;2.27;;;;;;;0.31;100.00;98278.42;1755259;81;21001;-70
2022/11/19 04:37:59;;;;;;;2.87;1.77;;;;;;;0.33;100.00;98278.45;1757531;81;21481;-69
2022/11/19 04:40:26;;;;;;;3.02;1.92;;;;;;;0.35;100.00;98280.91;1745299;81;21030;-70
2022/11/19 04:42:52;;;;;;;3.37;2.00;;;;;;;0.31;100.00;98276.56;1744618;81;21045;-70
2022/11/19 04:45:18;;;;;;;3.08;1.98;;;;;;;0.35;100.00;98268.86;1745468;81;22193;-69
2022/11/19 04:47:45;;;;;;;1.72;1.37;;;;;;;0.32;100.00;98276.82;1744556;81;21033;-70
2022/11/19 04:50:12;;;;;;;2.72;1.60;;;;;;;0.36;100.00;98270.46;1753956;81;21101;-71
2022/11/19 04:55:20;;;;;;;2.75;1.60;;;;;;;0.35;100.00;98271.02;1794007;78;22930;-69
2022/11/19 04:57:50;;;;;;;;;;;;;;;0.35;100.00;98290.27;1762552;80;21537;-69
2022/11/19 05:00:16;;;;;;;2.67;1.60;;;;;;;0.34;100.00;98290.80;1731371;81;20186;-69
2022/11/19 05:02:43;;;;;;;2.37;1.40;;;;;;;0.33;100.00;98301.73;1731859;82;21045;-69
2022/11/19 05:05:09;;;;;;;;;;;;;;;0.27;100.00;98314.22;1726829;81;21002;-69
2022/11/19 05:07:36;;;;;;;2.58;1.55;;;;;;;0.30;100.00;98317.75;1726259;81;20154;-69
2022/11/19 05:10:04;;;;;;;2.65;1.62;;;;;;;0.26;100.00;98315.78;1727334;81;21659;-69
2022/11/19 05:12:30;;;;;;;2.22;1.37;;;;;;;0.23;100.00;98317.09;1731357;81;21171;-69
2022/11/19 05:14:59;;;;;;;2.62;1.37;;;;;;;0.26;100.00;98315.27;1726520;81;21516;-69
2022/11/19 05:17:25;;;;;;;2.05;1.40;;;;;;;0.23;100.00;98319.77;1727721;81;21449;-69
2022/11/19 05:19:52;;;;;;;2.47;1.30;;;;;;;0.25;100.00;98318.20;1728890;81;20988;-70
2022/11/19 05:22:18;;;;;;;;;;;;;;;0.26;100.00;98321.95;1734875;81;20951;-69
2022/11/19 05:24:46;;;;;;;1.95;1.45;;;;;;;0.26;100.00;98328.65;1728614;81;20107;-70
2022/11/19 05:27:12;;;;;;;2.08;1.50;;;;;;;0.20;100.00;98336.30;1728252;81;20998;-69
2022/11/19 05:29:40;;;;;;;2.77;1.52;;;;;;;0.19;100.00;98339.20;1731648;81;20991;-69
2022/11/19 05:32:07;;;;;;;;;;;;;;;0.20;100.00;98344.34;1733171;81;20993;-69
2022/11/19 05:34:34;;;;;;;1.90;1.20;;;;;;;0.17;100.00;98342.14;1725845;81;20132;-69
2022/11/19 05:37:00;;;;;;;1.55;1.05;;;;;;;0.16;100.00;98353.06;1722535;81;21563;-69
2022/11/19 05:39:27;;;;;;;2.47;1.50;;;;;;;0.19;100.00;98348.57;1726120;81;22071;-69
2022/11/19 05:41:53;;;;;;;2.85;2.02;;;;;;;0.15;100.00;98362.95;1723323;81;21092;-69
2022/11/19 05:44:20;;;;;;;;;;;;;;;0.11;100.00;98353.77;1645725;84;21081;-69
2022/11/19 05:46:46;;;;;;;2.72;1.98;;;;;;;0.14;100.00;98356.00;1662178;84;20196;-70
2022/11/19 05:49:13;;;;;;;;;;;;;;;0.05;100.00;98359.27;1698373;83;21632;-69
2022/11/19 05:51:39;;;;;;;2.50;1.75;;;;;;;0.07;100.00;98358.52;1671156;84;20166;-70
2022/11/19 05:54:06;;;;;;;2.67;1.60;;;;;;;0.06;100.00;98367.59;1668250;84;21554;-69
2022/11/19 05:56:33;;;;;;;2.10;1.45;;;;;;;0.05;100.00;98356.07;1661282;85;21060;-70
2022/11/19 05:59:00;;;;;;;2.17;1.37;;;;;;;0.12;100.00;98359.42;1676897;84;21078;-69
2022/11/19 06:01:27;;;;;;;2.42;1.57;;;;;;;0.18;100.00;98366.48;1665150;84;20985;-70
2022/11/19 06:03:54;;;;;;;2.72;1.50;;;;;;;0.19;100.00;98362.77;1666816;85;21163;-69
2022/11/19 06:06:20;;;;;;;2.25;1.30;;;;;;;0.29;100.00;98375.01;1717562;82;21004;-69
2022/11/19 06:08:48;;;;;;;4.15;2.05;;;;;;;0.28;100.00;98381.44;1734345;81;21095;-69
2022/11/19 06:14:00;;;;;;;3.45;2.45;;;;;;;0.31;100.00;98380.95;1713485;82;21040;-69
2022/11/19 06:16:26;;;;;;;;;;;;;;;0.21;100.00;98387.45;1715275;82;21011;-70
2022/11/19 06:18:54;;;;;;;2.05;1.60;;;;;;;0.23;100.00;98392.55;1714574;82;20147;-70
2022/11/19 06:21:22;;;;;;;2.27;1.15;;;;;;;0.24;100.00;98390.98;1713339;82;21093;-70
2022/11/19 06:24:37;;;;;;;2.15;1.30;;;;;;;0.19;100.00;98394.89;1791878;78;22852;-71
2022/11/19 06:27:03;;;;;;;1.87;1.22;;;;;;;0.21;100.00;98404.03;1776157;80;21503;-71
2022/11/19 06:29:30;;;;;;;2.10;1.40;;;;;;;0.27;100.00;98397.72;1774304;80;21054;-72
2022/11/19 06:31:56;;;;;;;1.55;1.05;;;;;;;0.21;100.00;98408.86;1768835;80;21050;-72
2022/11/19 06:34:23;;;;;;;2.05;1.45;;;;;;;0.21;100.00;98413.39;1764374;80;21058;-72
2022/11/19 06:36:49;;;;;;;2.67;1.60;;;;;;;0.22;100.00;98416.34;1785250;80;21516;-72
2022/11/19 06:39:16;;;;;;;4.22;2.20;;;;;;;0.18;100.00;98421.35;1790160;80;21489;-72
2022/11/19 06:41:43;;;;;;;4.53;2.75;;;;;;;0.24;100.00;98421.77;1777872;80;21093;-72
2022/11/19 06:44:09;;;;;;;4.05;3.20;;;;;;;0.24;100.00;98417.75;1787167;80;21073;-72
2022/11/19 06:46:37;;;;;;;4.55;2.72;;;;;;;0.18;100.00;98420.02;1785655;80;21651;-72
2022/11/19 06:49:04;;;;;;;3.10;2.10;;;;;;;0.23;100.00;98425.48;1772635;80;21074;-74
2022/11/19 06:51:31;;;;;;;4.80;2.33;;;;;;;0.23;100.00;98426.82;1778297;80;21085;-74
2022/11/19 06:53:58;;;;;;;;;;;;;;;0.23;100.00;98424.14;1778297;80;21030;-75
2022/11/19 06:56:24;;;;;;;3.87;2.37;;;;;;;0.22;100.00;98425.70;1764228;80;20127;-72
2022/11/19 06:58:50;;;;;;;4.00;2.50;;;;;;;0.14;100.00;98422.91;1770484;80;21022;-71
2022/11/19 07:01:17;;;;;;;4.03;2.50;;;;;;;0.11;100.00;98426.02;1747115;80;21034;-72
2022/11/19 07:03:43;;;;;;;4.00;2.50;;;;;;;0.10;100.00;98433.78;1740022;81;21027;-71
2022/11/19 07:06:10;;;;;;;5.25;2.72;;;;;;;0.19;100.00;98430.20;1722418;83;21058;-71
2022/11/19 07:08:36;;;;;;;5.33;2.83;;;;;;;0.22;100.00;98437.23;1709521;83;21011;-71
2022/11/19 07:11:24;;;;;;;7.03;3.27;;;;;;;0.19;100.00;98437.70;1714332;82;21431;-71
2022/11/19 07:13:56;;;;;;;6.12;3.65;;;;;;;0.25;100.00;98443.99;1709005;81;21561;-71
2022/11/19 07:23:31;;;;;;;7.37;4.05;;;;;;;0.30;100.00;98436.87;1877946;74;23627;-68
2022/11/19 07:26:00;;;;;;;6.47;4.15;;;;;;;0.24;100.00;98448.53;1825078;77;21006;-70
2022/11/19 07:28:27;;;;;;;8.15;4.50;;;;;;;0.30;100.00;98450.77;1817552;78;21119;-69
2022/11/19 07:30:54;;;;;;;6.17;4.05;;;;;;;0.34;100.00;98446.05;1826012;77;21057;-72
2022/11/19 07:33:21;;;;;;;7.30;4.55;;;;;;;0.39;100.00;98449.37;1823944;77;22387;-72
2022/11/19 07:35:47;;;;;;;;;;;;;;;0.35;100.00;98461.08;1829232;78;21021;-72
2022/11/19 07:38:14;;;;;;;8.58;4.00;;;;;;;0.38;100.00;98461.94;1826765;77;20148;-72
2022/11/19 07:40:40;;;;;;;8.85;4.45;;;;;;;0.35;100.00;98465.61;1826309;77;21311;-72
2022/11/19 07:43:07;;;;;;;8.48;5.05;;;;;;;0.36;100.00;98466.70;1828188;77;21069;-72
2022/11/19 07:45:36;;;;;;;;;;;;;;;0.37;100.00;98472.87;1829826;78;21072;-72
2022/11/19 07:48:03;;;;;;;6.90;3.72;;;;;;;0.36;100.00;98479.27;1826551;78;20261;-72
2022/11/19 07:50:29;;;;;;;5.90;3.83;;;;;;;0.31;100.00;98483.19;1827922;77;20994;-72
2022/11/19 07:52:58;;;;;;;6.37;4.40;;;;;;;0.36;100.00;98488.11;1826717;77;21420;-72
2022/11/19 07:55:25;;;;;;;6.97;3.70;;;;;;;0.43;100.00;98483.44;1828826;78;20994;-72
2022/11/19 07:57:54;;;;;;;4.72;3.77;;;;;;;0.41;100.00;98496.78;1829186;78;21018;-71
2022/11/19 08:00:21;;;;;;;5.60;4.00;;;;;;;0.42;100.00;98501.09;1819474;77;20970;-71
2022/11/19 08:02:48;;;;;;;5.42;3.90;;;;;;;0.41;100.00;98502.14;1829051;78;21037;-71
2022/11/19 08:05:16;;;;;;;6.37;3.77;;;;;;;0.36;100.00;98507.37;1827772;78;21045;-71
2022/11/19 08:07:43;;;;;;;4.95;3.55;;;;;;;0.34;100.00;98510.82;1827453;78;21655;-71
2022/11/19 08:10:11;;;;;;;5.28;3.50;;;;;;;0.32;100.00;98514.27;1827182;77;21014;-71
2022/11/19 08:12:38;;;;;;;5.83;4.22;;;;;;;0.30;100.00;98519.84;1827751;78;21678;-71
2022/11/19 08:15:06;;;;;;;6.83;4.25;;;;;;;0.27;100.00;98531.55;1827445;78;21087;-71
2022/11/19 08:20:18;;;;;;;6.03;4.22;;;;;;;0.23;100.00;98543.77;1808521;77;21033;-71
2022/11/19 08:22:44;;;;;;;5.15;3.58;;;;;;;0.23;100.00;98555.30;1788489;80;21064;-72
2022/11/19 08:25:11;;;;;;;6.75;4.92;;;;;;;0.22;100.00;98560.34;1807461;79;21018;-71
2022/11/19 08:27:38;;;;;;;7.00;4.67;;;;;;;0.14;100.00;98566.08;1820766;77;21067;-72
2022/11/19 08:30:07;;;;;;;7.95;4.95;;;;;;;0.11;100.00;98563.05;1814542;77;21071;-73
2022/11/19 08:32:35;;;;;;;8.40;5.45;;;;;;;0.08;100.00;98570.17;1817297;79;21075;-73
2022/11/19 08:35:02;;;;;;;7.80;4.92;;;;;;;0.08;100.00;98575.53;1817330;77;21518;-73
2022/11/19 08:37:29;;;;;;;6.58;4.75;;;;;;;0.12;100.00;98582.87;1814949;77;21026;-72
2022/11/19 08:39:55;;;;;;;7.35;5.10;;;;;;;0.12;100.00;98591.41;1817422;77;21067;-72
2022/11/19 08:45:07;;;;;;;7.65;5.60;;;;;;;0.14;100.00;98597.37;1813551;77;21557;-72
2022/11/19 08:47:34;;;;;;;7.40;5.20;;;;;;;0.13;100.00;98595.73;1818533;77;21063;-72
2022/11/19 08:50:01;;;;;;;7.42;5.65;;;;;;;0.14;100.00;98612.09;1818191;77;20992;-71
2022/11/19 08:52:27;;;;;;;6.87;5.15;;;;;;;0.16;100.00;98613.47;1818149;79;21102;-71
2022/11/19 08:54:54;;;;;;;6.62;5.12;;;;;;;0.13;100.00;98616.62;1818907;77;21015;-72
2022/11/19 08:57:21;;;;;;;6.72;5.08;;;;;;;0.17;100.00;98621.80;1815847;77;21046;-72
2022/11/19 08:59:47;;;;;;;8.18;5.65;;;;;;;0.22;100.00;98627.26;1814770;78;22352;-72
2022/11/19 09:02:14;;;;;;;7.15;5.28;;;;;;;0.18;100.00;98622.07;1814682;79;21088;-72
2022/11/19 09:04:40;;;;;;;7.17;5.70;;;;;;;0.22;100.00;98629.94;1813997;77;21138;-72
2022/11/19 09:07:07;;;;;;;7.33;4.75;;;;;;;0.20;100.00;98634.72;1820960;77;21051;-72
2022/11/19 09:09:34;;;;;;;6.50;4.80;;;;;;;0.17;100.00;98641.05;1817249;79;21040;-72
2022/11/19 09:12:00;;;;;;;7.20;5.15;;;;;;;0.12;100.00;98647.09;1791941;79;21082;-72
2022/11/19 09:14:28;;;;;;;5.92;4.87;;;;;;;0.09;100.00;98646.73;1798121;79;21587;-72
2022/11/19 09:16:55;;;;;;;7.08;5.00;;;;;;;0.09;100.00;98654.25;1818186;77;21654;-72
2022/11/19 09:19:21;;;;;;;;;;;;;;;0.12;100.00;98663.15;1818409;77;21038;-72
2022/11/19 09:21:48;;;;;;;8.60;6.10;;;;;;;0.14;100.00;98658.92;1816425;78;20161;-72
2022/11/19 09:24:14;;;;;;;7.45;5.53;;;;;;;0.13;100.00;98663.45;1815598;79;21060;-72
2022/11/19 09:26:42;;;;;;;6.55;4.90;;;;;;;0.14;100.00;98666.95;1802498;79;21609;-72
2022/11/19 09:29:08;;;;;;;8.08;5.30;;;;;;;0.15;100.00;98669.38;1813610;79;21043;-72
2022/11/19 09:31:35;;;;;;;9.43;6.08;;;;;;;0.12;100.00;98678.38;1800008;79;21066;-72
2022/11/19 09:34:06;;;;;;;;;;;;;;;0.11;100.00;98681.58;1819523;79;21652;-71
2022/11/19 09:36:33;;;;;;;8.50;5.37;;;;;;;0.20;100.00;98683.41;1815176;79;20172;-70
2022/11/19 09:39:01;;;;;;;8.63;5.70;;;;;;;0.17;100.00;98681.20;1775118;79;21064;-70
2022/11/19 09:41:52;;;;;;;7.12;5.12;;;;;;;0.16;100.00;98690.27;1800109;79;21363;-70
2022/11/19 09:44:42;;;;;;;6.35;4.65;;;;;;;0.22;100.00;98686.66;1816460;79;21059;-70
2022/11/19 09:47:35;;;;;;;8.38;5.28;;;;;;;0.18;100.00;98692.20;1803762;79;21640;-72
2022/11/19 09:50:23;;;;;;;6.65;4.62;;;;;;;0.20;100.00;98696.80;1790322;79;21650;-71
2022/11/19 09:52:57;;;;;;;6.85;5.05;;;;;;;0.17;100.00;98696.74;1800414;79;21601;-71
2022/11/19 09:55:36;;;;;;;7.60;5.55;;;;;;;0.15;100.00;98688.11;1811111;79;21509;-71
2022/11/19 09:58:07;;;;;;;8.13;4.92;;;;;;;0.12;100.00;98684.56;1814961;79;21131;-72
2022/11/19 10:00:34;;;;;;;7.28;5.17;;;;;;;0.10;100.00;98695.20;1799911;79;21064;-72
2022/11/19 10:03:02;;;;;;;7.80;4.83;;;;;;;0.09;100.00;98695.72;1765430;80;21079;-71
2022/11/19 10:05:49;;;;;;;6.35;4.78;;;;;;;0.10;100.00;98691.19;1793890;79;21067;-71
2022/11/19 10:08:40;;;;;;;6.30;4.90;;;;;;;0.09;100.00;98695.72;1806604;79;21087;-71
2022/11/19 10:11:15;;;;;;;6.15;4.20;;;;;;;0.05;100.00;98697.74;1800041;78;21004;-72
2022/11/19 10:14:02;;;;;;;6.60;4.90;;;;;;;0.05;100.00;98701.75;1791378;79;21016;-72
2022/11/19 10:16:42;;;;;;;7.47;5.40;;;;;;;0.06;100.00;98704.22;1802899;79;21071;-72
2022/11/19 10:19:41;;;;;;;9.60;5.92;;;;;;;0.01;100.00;98709.42;1816506;79;21452;-72
2022/11/19 10:22:20;;;;;;;6.58;4.97;;;;;;;-0.01;100.00;98715.54;1814038;78;21049;-72
2022/11/19 10:25:13;;;;;;;6.85;4.50;;;;;;;0.08;100.00;98722.19;1803609;78;21112;-73
2022/11/19 10:27:54;;;;;;;8.38;5.83;;;;;;;0.07;100.00;98725.92;1804409;78;21041;-72
2022/11/19 10:30:23;;;;;;;9.30;6.25;;;;;;;0.06;100.00;98736.33;1804166;79;21006;-72
2022/11/19 10:33:06;;;;;;;8.38;6.28;;;;;;;0.05;100.00;98743.23;1804132;78;20986;-72
2022/11/19 10:35:48;;;;;;;8.38;6.30;;;;;;;0.06;100.00;98749.70;1802209;79;20955;-73
2022/11/19 10:38:36;;;;;;;8.55;6.22;;;;;;;0.12;100.00;98764.84;1803657;78;21058;-71
2022/11/19 10:41:20;;;;;;;10.70;6.73;;;;;;;0.08;100.00;98756.97;1802437;79;21013;-72
2022/11/19 10:44:10;;;;;;;8.88;5.78;;;;;;;0.13;100.00;98763.80;1799769;79;21095;-72
2022/11/19 10:46:37;;;;;;;8.18;6.10;;;;;;;0.20;100.00;98771.73;1803561;78;21036;-72
2022/11/19 10:49:04;;;;;;;8.85;5.67;;;;;;;0.16;100.00;98774.57;1795675;77;22354;-72
2022/11/19 10:51:36;;;;;;;7.08;5.28;;;;;;;0.11;100.00;98790.52;1739622;78;21032;-72
2022/11/19 10:54:04;;;;;;;8.33;5.87;;;;;;;0.11;100.00;98789.97;1783758;78;21085;-72
2022/11/19 10:56:39;;;;;;;8.23;6.08;;;;;;;0.08;100.00;98776.22;1770305;81;21001;-72
2022/11/19 10:59:17;;;;;;;8.88;5.95;;;;;;;0.06;100.00;98786.34;1804704;78;21081;-72
2022/11/19 11:01:47;;;;;;;9.63;6.65;;;;;;;0.08;100.00;98811.83;1803419;77;20997;-72
2022/11/19 11:04:21;;;;;;;8.18;6.22;;;;;;;0.08;100.00;98828.41;1802869;78;21609;-72
2022/11/19 11:06:55;;;;;;;9.35;6.45;;;;;;;0.08;100.00;98835.91;1803424;78;21072;-73
2022/11/19 11:09:41;;;;;;;6.80;5.40;;;;;;;0.05;100.00;98833.70;1801828;78;21018;-72
2022/11/19 11:15:20;;;;;;;8.35;6.10;;;;;;;0.05;100.00;98836.38;1801468;79;21014;-72
2022/11/19 11:18:00;;;;;;;8.50;6.37;;;;;;;0.06;100.00;98843.88;1803571;78;21013;-73
2022/11/19 11:20:27;;;;;;;9.13;6.72;;;;;;;0.02;100.00;98859.57;1805094;78;21021;-72
2022/11/19 11:23:14;;;;;;;7.87;6.08;;;;;;;-0.03;100.00;98870.94;1807992;78;20992;-73
2022/11/19 11:26:05;;;;;;;9.60;7.05;;;;;;;0.01;100.00;98867.30;1818498;78;21913;-72
2022/11/19 11:28:33;;;;;;;8.30;6.33;;;;;;;-0.01;100.00;98865.37;1815084;79;21084;-72
2022/11/19 11:31:02;;;;;;;8.45;6.30;;;;;;;-0.09;100.00;98875.03;1807535;79;21395;-72
2022/11/19 11:33:41;;;;;;;9.18;6.87;;;;;;;-0.12;100.00;98879.50;1765096;81;21083;-72
2022/11/19 11:36:11;;;;;;;8.38;6.75;;;;;;;-0.16;100.00;98888.49;1793867;79;21391;-72
2022/11/19 11:38:52;;;;;;;8.25;6.03;;;;;;;-0.23;100.00;98886.92;1816748;79;21475;-72
2022/11/19 11:41:21;;;;;;;9.18;6.72;;;;;;;-0.26;100.00;98907.44;1813281;79;21070;-72
2022/11/19 11:44:03;;;;;;;9.58;7.05;;;;;;;-0.27;100.00;98921.84;1817151;79;21601;-72
2022/11/19 11:47:13;;;;;;;8.95;6.72;;;;;;;-0.25;100.00;98925.13;1817051;79;21028;-72
2022/11/19 11:49:48;;;;;;;8.33;5.92;;;;;;;-0.24;100.00;98933.43;1815371;79;21577;-71
2022/11/19 11:52:21;;;;;;;7.42;5.50;;;;;;;-0.14;100.00;98933.73;1816606;79;21000;-71
2022/11/19 11:55:07;;;;;;;8.15;5.87;;;;;;;-0.15;100.00;98928.92;1816538;79;21063;-72
2022/11/19 11:57:36;;;;;;;8.45;6.03;;;;;;;-0.19;100.00;98931.74;1816964;79;21024;-72
2022/11/19 12:00:33;;;;;;;7.90;5.58;;;;;;;-0.19;100.00;98951.80;1816204;78;21008;-72
2022/11/19 12:03:15;;;;;;;8.13;5.75;;;;;;;-0.20;100.00;98956.84;1762615;78;21559;-71
2022/11/19 12:06:09;;;;;;;9.23;6.15;;;;;;;-0.24;100.00;98969.02;1816989;79;21491;-72
2022/11/19 12:08:49;;;;;;;8.98;6.60;;;;;;;-0.25;100.00;98963.91;1789166;79;21649;-71
2022/11/19 12:11:53;;;;;;;9.03;6.47;;;;;;;-0.25;100.00;98971.39;1814729;79;21032;-71
2022/11/19 12:14:58;;;;;;;8.28;6.17;;;;;;;-0.30;100.00;98983.80;1816596;79;21088;-71
2022/11/19 12:17:56;;;;;;;7.58;5.85;;;;;;;-0.28;100.00;99001.26;1815903;79;21012;-71
2022/11/19 12:20:46;;;;;;;9.53;6.25;;;;;;;-0.35;100.00;99012.53;1817763;79;21585;-71
2022/11/19 12:23:30;;;;;;;11.68;6.53;;;;;;;-0.37;100.00;99022.64;1812072;78;21088;-71
2022/11/19 12:26:53;;;;;;;8.60;6.45;;;;;;;-0.33;100.00;99023.84;1802607;79;21296;-71
2022/11/19 12:29:46;;;;;;;9.10;6.60;;;;;;;-0.44;100.00;99028.56;1737487;81;21127;-71
2022/11/19 12:32:44;;;;;;;9.40;6.60;;;;;;;-0.43;100.00;99038.75;1783676;78;21029;-71
2022/11/19 12:35:41;;;;;;;8.98;6.65;;;;;;;-0.45;100.00;99031.44;1781469;78;21005;-71
2022/11/19 12:38:36;;;;;;;8.08;6.42;;;;;;;-0.45;100.00;99042.96;1801586;79;21069;-71
2022/11/19 12:41:32;;;;;;;9.43;6.62;;;;;;;-0.41;100.00;99052.70;1751000;78;21006;-71
2022/11/19 12:44:23;;;;;;;10.58;7.62;;;;;;;-0.46;100.00;99041.86;1767265;80;21148;-70
2022/11/19 12:46:59;;;;;;;9.38;6.42;;;;;;;-0.52;100.00;99058.23;1798113;78;20997;-70
2022/11/19 12:49:48;;;;;;;8.85;7.08;;;;;;;-0.52;100.00;99067.08;1801739;79;21427;-70